sensor_id;sensor_type;location;lat;lon;timestamp;P1;durP1;ratioP1;P2;durP2;ratioP2
25609;SDS011;13479;49.044;8.716;2023-03-07T05:00:55;18.60;;;9.50;;
25609;SDS011;13479;49.044;8.716;2023-03-07T05:03:21;15.77;;;8.67;;
25609;SDS011;13479;49.044;8.716;2023-03-07T05:05:46;20.47;;;9.00;;
25609;SDS011;13479;49.044;8.716;2023-03-07T05:08:12;15.93;;;8.83;;
25609;SDS011;13479;49.044;8.716;2023-03-07T05:10:37;14.00;;;7.87;;
25609;SDS011;13479;49.044;8.716;2023-03-07T05:13:02;17.37;;;8.17;;
25609;SDS011;13479;49.044;8.716;2023-03-07T05:15:28;16.20;;;8.50;;
25609;SDS011;13479;49.044;8.716;2023-03-07T05:17:53;14.90;;;8.37;;
25609;SDS011;13479;49.044;8.716;2023-03-07T05:20:18;15.47;;;8.17;;
25609;SDS011;13479;49.044;8.716;2023-03-07T05:22:44;15.80;;;8.60;;
25609;SDS011;13479;49.044;8.716;2023-03-07T05:25:10;17.80;;;8.53;;
25609;SDS011;13479;49.044;8.716;2023-03-07T05:27:35;15.23;;;7.50;;
25609;SDS011;13479;49.044;8.716;2023-03-07T05:30:00;17.77;;;9.53;;
25609;SDS011;13479;49.044;8.716;2023-03-07T05:32:26;17.20;;;7.07;;
25609;SDS011;13479;49.044;8.716;2023-03-07T05:34:51;19.87;;;8.27;;
25609;SDS011;13479;49.044;8.716;2023-03-07T05:37:16;16.57;;;8.33;;
25609;SDS011;13479;49.044;8.716;2023-03-07T05:39:42;15.10;;;8.60;;
25609;SDS011;13479;49.044;8.716;2023-03-07T05:42:07;14.83;;;8.00;;
25609;SDS011;13479;49.044;8.716;2023-03-07T05:44:33;16.30;;;8.03;;
25609;SDS011;13479;49.044;8.716;2023-03-07T05:46:58;15.63;;;8.27;;
25609;SDS011;13479;49.044;8.716;2023-03-07T05:49:23;16.83;;;8.57;;
25609;SDS011;13479;49.044;8.716;2023-03-07T05:51:49;16.30;;;8.30;;
25609;SDS011;13479;49.044;8.716;2023-03-07T05:54:15;15.20;;;8.23;;
25609;SDS011;13479;49.044;8.716;2023-03-07T05:56:41;16.67;;;9.13;;
25609;SDS011;13479;49.044;8.716;2023-03-07T05:59:06;15.53;;;8.23;;
25609;SDS011;13479;49.044;8.716;2023-03-07T06:01:32;16.20;;;8.67;;
25609;SDS011;13479;49.044;8.716;2023-03-07T06:03:58;13.17;;;7.67;;
25609;SDS011;13479;49.044;8.716;2023-03-07T06:06:23;15.73;;;8.57;;
25609;SDS011;13479;49.044;8.716;2023-03-07T06:08:48;16.90;;;8.47;;
25609;SDS011;13479;49.044;8.716;2023-03-07T06:11:14;14.73;;;8.00;;
25609;SDS011;13479;49.044;8.716;2023-03-07T06:13:39;15.33;;;7.97;;
25609;SDS011;13479;49.044;8.716;2023-03-07T06:16:04;17.67;;;8.27;;
25609;SDS011;13479;49.044;8.716;2023-03-07T06:18:29;15.20;;;8.43;;
25609;SDS011;13479;49.044;8.716;2023-03-07T06:20:59;13.77;;;7.50;;
25609;SDS011;13479;49.044;8.716;2023-03-07T06:23:26;14.40;;;8.43;;
25609;SDS011;13479;49.044;8.716;2023-03-07T06:25:53;15.60;;;7.67;;
25609;SDS011;13479;49.044;8.716;2023-03-07T06:28:19;13.87;;;7.87;;
25609;SDS011;13479;49.044;8.716;2023-03-07T06:30:44;14.10;;;7.53;;
25609;SDS011;13479;49.044;8.716;2023-03-07T06:33:10;14.07;;;7.53;;
25609;SDS011;13479;49.044;8.716;2023-03-07T06:35:37;16.63;;;7.97;;
25609;SDS011;13479;49.044;8.716;2023-03-07T06:38:03;14.23;;;7.83;;
25609;SDS011;13479;49.044;8.716;2023-03-07T06:40:29;14.13;;;7.30;;
25609;SDS011;13479;49.044;8.716;2023-03-07T06:42:54;14.57;;;7.03;;
25609;SDS011;13479;49.044;8.716;2023-03-07T06:45:19;16.47;;;8.03;;
25609;SDS011;13479;49.044;8.716;2023-03-07T06:47:44;16.23;;;7.97;;
25609;SDS011;13479;49.044;8.716;2023-03-07T06:50:10;13.97;;;7.43;;
25609;SDS011;13479;49.044;8.716;2023-03-07T06:52:35;14.37;;;7.80;;
25609;SDS011;13479;49.044;8.716;2023-03-07T06:55:00;16.63;;;7.90;;
25609;SDS011;13479;49.044;8.716;2023-03-07T06:57:26;12.80;;;7.00;;
25609;SDS011;13479;49.044;8.716;2023-03-07T06:59:51;14.80;;;6.80;;
25609;SDS011;13479;49.044;8.716;2023-03-07T07:02:16;14.33;;;7.00;;
25609;SDS011;13479;49.044;8.716;2023-03-07T07:04:42;12.73;;;6.03;;
25609;SDS011;13479;49.044;8.716;2023-03-07T07:07:07;13.10;;;7.10;;
25609;SDS011;13479;49.044;8.716;2023-03-07T07:09:32;13.57;;;7.07;;
25609;SDS011;13479;49.044;8.716;2023-03-07T07:11:58;12.90;;;6.97;;
25609;SDS011;13479;49.044;8.716;2023-03-07T07:14:23;13.13;;;6.47;;
25609;SDS011;13479;49.044;8.716;2023-03-07T07:16:49;11.40;;;6.07;;
25609;SDS011;13479;49.044;8.716;2023-03-07T07:19:14;11.60;;;5.83;;
25609;SDS011;13479;49.044;8.716;2023-03-07T07:21:39;14.13;;;6.97;;
25609;SDS011;13479;49.044;8.716;2023-03-07T07:24:05;9.83;;;5.53;;
25609;SDS011;13479;49.044;8.716;2023-03-07T07:26:30;11.33;;;6.20;;
25609;SDS011;13479;49.044;8.716;2023-03-07T07:28:55;12.67;;;5.80;;
25609;SDS011;13479;49.044;8.716;2023-03-07T07:31:20;12.03;;;6.77;;
25609;SDS011;13479;49.044;8.716;2023-03-07T07:33:46;13.03;;;6.33;;
25609;SDS011;13479;49.044;8.716;2023-03-07T07:36:11;11.43;;;6.27;;
25609;SDS011;13479;49.044;8.716;2023-03-07T07:38:37;12.02;;;6.28;;
25609;SDS011;13479;49.044;8.716;2023-03-07T07:41:02;13.57;;;6.67;;
25609;SDS011;13479;49.044;8.716;2023-03-07T07:43:28;11.45;;;6.20;;
25609;SDS011;13479;49.044;8.716;2023-03-07T07:45:53;10.67;;;5.47;;
25609;SDS011;13479;49.044;8.716;2023-03-07T07:48:18;13.05;;;6.93;;
25609;SDS011;13479;49.044;8.716;2023-03-07T07:50:44;11.48;;;5.90;;
25609;SDS011;13479;49.044;8.716;2023-03-07T07:53:11;10.27;;;5.67;;
25609;SDS011;13479;49.044;8.716;2023-03-07T07:55:36;10.40;;;6.03;;
25609;SDS011;13479;49.044;8.716;2023-03-07T07:58:02;9.97;;;5.63;;
25609;SDS011;13479;49.044;8.716;2023-03-07T08:00:27;10.80;;;5.53;;
25609;SDS011;13479;49.044;8.716;2023-03-07T08:02:52;8.10;;;3.90;;
25609;SDS011;13479;49.044;8.716;2023-03-07T08:05:18;12.03;;;6.00;;
25609;SDS011;13479;49.044;8.716;2023-03-07T08:07:45;13.10;;;5.35;;
25609;SDS011;13479;49.044;8.716;2023-03-07T08:10:11;10.20;;;4.78;;
25609;SDS011;13479;49.044;8.716;2023-03-07T08:12:40;14.37;;;5.50;;
25609;SDS011;13479;49.044;8.716;2023-03-07T08:15:09;10.60;;;5.83;;
25609;SDS011;13479;49.044;8.716;2023-03-07T08:17:35;11.18;;;5.38;;
25609;SDS011;13479;49.044;8.716;2023-03-07T08:20:00;10.35;;;4.75;;
25609;SDS011;13479;49.044;8.716;2023-03-07T08:22:32;9.38;;;5.30;;
25609;SDS011;13479;49.044;8.716;2023-03-07T08:24:57;8.80;;;4.40;;
25609;SDS011;13479;49.044;8.716;2023-03-07T08:27:22;10.02;;;5.18;;
25609;SDS011;13479;49.044;8.716;2023-03-07T08:29:47;8.30;;;4.25;;
25609;SDS011;13479;49.044;8.716;2023-03-07T08:32:13;10.18;;;5.43;;
25609;SDS011;13479;49.044;8.716;2023-03-07T08:34:39;6.90;;;3.42;;
25609;SDS011;13479;49.044;8.716;2023-03-07T08:37:04;8.20;;;4.53;;
25609;SDS011;13479;49.044;8.716;2023-03-07T08:39:29;7.70;;;4.27;;
25609;SDS011;13479;49.044;8.716;2023-03-07T08:41:54;8.60;;;4.55;;
25609;SDS011;13479;49.044;8.716;2023-03-07T08:44:20;9.83;;;4.77;;
25609;SDS011;13479;49.044;8.716;2023-03-07T08:46:46;7.82;;;4.40;;
25609;SDS011;13479;49.044;8.716;2023-03-07T08:49:11;11.57;;;4.78;;
25609;SDS011;13479;49.044;8.716;2023-03-07T08:51:36;7.95;;;4.28;;
25609;SDS011;13479;49.044;8.716;2023-03-07T08:54:02;6.90;;;3.88;;
25609;SDS011;13479;49.044;8.716;2023-03-07T08:56:27;7.50;;;4.63;;
25609;SDS011;13479;49.044;8.716;2023-03-07T08:58:52;9.57;;;5.00;;
25609;SDS011;13479;49.044;8.716;2023-03-07T09:01:18;9.63;;;4.30;;
25609;SDS011;13479;49.044;8.716;2023-03-07T09:03:43;9.20;;;4.60;;
25609;SDS011;13479;49.044;8.716;2023-03-07T09:06:13;8.30;;;4.47;;
25609;SDS011;13479;49.044;8.716;2023-03-07T09:08:43;7.35;;;4.30;;
25609;SDS011;13479;49.044;8.716;2023-03-07T09:11:09;9.02;;;4.75;;
25609;SDS011;13479;49.044;8.716;2023-03-07T09:13:34;6.72;;;3.70;;
25609;SDS011;13479;49.044;8.716;2023-03-07T09:16:02;9.57;;;4.50;;
25609;SDS011;13479;49.044;8.716;2023-03-07T09:18:28;8.20;;;4.63;;
25609;SDS011;13479;49.044;8.716;2023-03-07T09:20:54;9.38;;;5.00;;
25609;SDS011;13479;49.044;8.716;2023-03-07T09:23:19;8.00;;;4.50;;
25609;SDS011;13479;49.044;8.716;2023-03-07T09:25:44;9.57;;;4.40;;
25609;SDS011;13479;49.044;8.716;2023-03-07T09:28:09;8.85;;;4.07;;
25609;SDS011;13479;49.044;8.716;2023-03-07T09:30:35;8.90;;;4.63;;
25609;SDS011;13479;49.044;8.716;2023-03-07T09:33:01;9.73;;;4.70;;
25609;SDS011;13479;49.044;8.716;2023-03-07T09:35:26;8.82;;;4.78;;
25609;SDS011;13479;49.044;8.716;2023-03-07T09:37:52;10.38;;;5.00;;
25609;SDS011;13479;49.044;8.716;2023-03-07T09:40:18;13.85;;;5.32;;
25609;SDS011;13479;49.044;8.716;2023-03-07T09:45:48;12.77;;;4.57;;
25609;SDS011;13479;49.044;8.716;2023-03-07T09:48:35;8.55;;;4.45;;
25609;SDS011;13479;49.044;8.716;2023-03-07T09:56:34;7.95;;;4.32;;
25609;SDS011;13479;49.044;8.716;2023-03-07T09:59:27;7.78;;;4.25;;
25609;SDS011;13479;49.044;8.716;2023-03-07T10:02:03;8.50;;;4.25;;
25609;SDS011;13479;49.044;8.716;2023-03-07T10:07:41;8.75;;;3.83;;
25609;SDS011;13479;49.044;8.716;2023-03-07T10:10:11;11.55;;;4.50;;
25609;SDS011;13479;49.044;8.716;2023-03-07T10:12:46;8.52;;;4.72;;
25609;SDS011;13479;49.044;8.716;2023-03-07T10:15:44;9.02;;;5.03;;
25609;SDS011;13479;49.044;8.716;2023-03-07T10:24:07;9.55;;;4.38;;
25609;SDS011;13479;49.044;8.716;2023-03-07T10:26:58;10.23;;;4.35;;
25609;SDS011;13479;49.044;8.716;2023-03-07T10:29:31;8.68;;;3.83;;
25609;SDS011;13479;49.044;8.716;2023-03-07T10:32:05;11.95;;;4.50;;
25609;SDS011;13479;49.044;8.716;2023-03-07T10:34:46;9.07;;;4.32;;
25609;SDS011;13479;49.044;8.716;2023-03-07T10:37:17;7.70;;;3.22;;
25609;SDS011;13479;49.044;8.716;2023-03-07T10:39:51;8.90;;;4.38;;
25609;SDS011;13479;49.044;8.716;2023-03-07T10:42:21;9.50;;;5.10;;
25609;SDS011;13479;49.044;8.716;2023-03-07T10:44:48;8.65;;;4.25;;
25609;SDS011;13479;49.044;8.716;2023-03-07T10:47:19;5.25;;;3.00;;
25609;SDS011;13479;49.044;8.716;2023-03-07T10:49:47;8.38;;;4.00;;
25609;SDS011;13479;49.044;8.716;2023-03-07T10:52:34;6.60;;;3.65;;
25609;SDS011;13479;49.044;8.716;2023-03-07T10:58:12;6.95;;;3.97;;
25609;SDS011;13479;49.044;8.716;2023-03-07T11:00:44;5.95;;;3.92;;
25609;SDS011;13479;49.044;8.716;2023-03-07T11:03:19;8.23;;;4.28;;
25609;SDS011;13479;49.044;8.716;2023-03-07T11:05:48;8.65;;;4.50;;
25609;SDS011;13479;49.044;8.716;2023-03-07T11:08:47;8.02;;;4.10;;
25609;SDS011;13479;49.044;8.716;2023-03-07T11:11:11;7.60;;;4.30;;
25609;SDS011;13479;49.044;8.716;2023-03-07T11:14:09;7.22;;;4.15;;
25609;SDS011;13479;49.044;8.716;2023-03-07T11:16:55;7.63;;;3.70;;
25609;SDS011;13479;49.044;8.716;2023-03-07T11:21:51;8.52;;;4.28;;
25609;SDS011;13479;49.044;8.716;2023-03-07T11:24:28;6.95;;;4.03;;
25609;SDS011;13479;49.044;8.716;2023-03-07T11:26:57;8.07;;;4.55;;
25609;SDS011;13479;49.044;8.716;2023-03-07T11:29:24;7.72;;;4.30;;
25609;SDS011;13479;49.044;8.716;2023-03-07T11:34:35;5.55;;;2.92;;
25609;SDS011;13479;49.044;8.716;2023-03-07T11:37:16;11.07;;;4.80;;
25609;SDS011;13479;49.044;8.716;2023-03-07T11:39:47;7.00;;;3.63;;
25609;SDS011;13479;49.044;8.716;2023-03-07T11:42:36;11.35;;;4.18;;
25609;SDS011;13479;49.044;8.716;2023-03-07T11:45:18;8.25;;;4.38;;
25609;SDS011;13479;49.044;8.716;2023-03-07T11:47:57;9.02;;;3.92;;
25609;SDS011;13479;49.044;8.716;2023-03-07T11:50:35;8.20;;;3.00;;
25609;SDS011;13479;49.044;8.716;2023-03-07T12:05:15;7.38;;;3.58;;
25609;SDS011;13479;49.044;8.716;2023-03-07T12:07:56;7.10;;;3.42;;
25609;SDS011;13479;49.044;8.716;2023-03-07T12:13:36;7.45;;;4.13;;
25609;SDS011;13479;49.044;8.716;2023-03-07T12:16:18;7.90;;;3.90;;
25609;SDS011;13479;49.044;8.716;2023-03-07T12:24:36;9.90;;;4.00;;
25609;SDS011;13479;49.044;8.716;2023-03-07T12:27:10;9.25;;;4.38;;
25609;SDS011;13479;49.044;8.716;2023-03-07T12:29:43;8.73;;;4.20;;
25609;SDS011;13479;49.044;8.716;2023-03-07T12:32:24;8.07;;;4.22;;
25609;SDS011;13479;49.044;8.716;2023-03-07T12:37:22;7.97;;;4.43;;
25609;SDS011;13479;49.044;8.716;2023-03-07T12:40:01;9.52;;;4.60;;
25609;SDS011;13479;49.044;8.716;2023-03-07T12:45:23;8.82;;;4.65;;
25609;SDS011;13479;49.044;8.716;2023-03-07T12:50:22;7.88;;;4.88;;
25609;SDS011;13479;49.044;8.716;2023-03-07T12:53:04;8.85;;;4.50;;
25609;SDS011;13479;49.044;8.716;2023-03-07T12:56:06;8.57;;;4.43;;
25609;SDS011;13479;49.044;8.716;2023-03-07T13:01:33;8.90;;;4.53;;
25609;SDS011;13479;49.044;8.716;2023-03-07T13:06:42;10.93;;;4.78;;
25609;SDS011;13479;49.044;8.716;2023-03-07T13:09:43;8.45;;;4.50;;
25609;SDS011;13479;49.044;8.716;2023-03-07T13:17:08;8.52;;;4.60;;
25609;SDS011;13479;49.044;8.716;2023-03-07T13:22:00;12.98;;;4.60;;
25609;SDS011;13479;49.044;8.716;2023-03-07T13:24:32;8.93;;;3.95;;
25609;SDS011;13479;49.044;8.716;2023-03-07T13:26:59;7.75;;;4.50;;
25609;SDS011;13479;49.044;8.716;2023-03-07T13:35:12;7.78;;;4.13;;
25609;SDS011;13479;49.044;8.716;2023-03-07T13:37:47;8.75;;;4.25;;
25609;SDS011;13479;49.044;8.716;2023-03-07T13:40:45;9.95;;;4.35;;
25609;SDS011;13479;49.044;8.716;2023-03-07T13:45:51;8.02;;;4.65;;
25609;SDS011;13479;49.044;8.716;2023-03-07T13:53:26;7.75;;;4.53;;
25609;SDS011;13479;49.044;8.716;2023-03-07T13:56:19;9.75;;;4.72;;
25609;SDS011;13479;49.044;8.716;2023-03-07T13:59:00;7.53;;;3.55;;
25609;SDS011;13479;49.044;8.716;2023-03-07T14:04:15;9.02;;;4.30;;
25609;SDS011;13479;49.044;8.716;2023-03-07T14:07:30;8.20;;;4.63;;
25609;SDS011;13479;49.044;8.716;2023-03-07T14:09:40;8.90;;;4.07;;
25609;SDS011;13479;49.044;8.716;2023-03-07T14:15:06;10.07;;;4.63;;
25609;SDS011;13479;49.044;8.716;2023-03-07T14:26:18;7.25;;;4.28;;
25609;SDS011;13479;49.044;8.716;2023-03-07T14:28:50;10.00;;;4.10;;
25609;SDS011;13479;49.044;8.716;2023-03-07T14:31:25;6.68;;;3.67;;
25609;SDS011;13479;49.044;8.716;2023-03-07T14:33:52;11.32;;;4.05;;
25609;SDS011;13479;49.044;8.716;2023-03-07T14:36:18;8.27;;;4.05;;
25609;SDS011;13479;49.044;8.716;2023-03-07T14:38:46;9.60;;;3.75;;
25609;SDS011;13479;49.044;8.716;2023-03-07T14:49:57;9.30;;;4.32;;
25609;SDS011;13479;49.044;8.716;2023-03-07T14:52:25;11.07;;;4.72;;
25609;SDS011;13479;49.044;8.716;2023-03-07T14:54:51;9.80;;;4.20;;
25609;SDS011;13479;49.044;8.716;2023-03-07T14:57:36;6.18;;;3.40;;
25609;SDS011;13479;49.044;8.716;2023-03-07T15:02:48;7.18;;;4.15;;
25609;SDS011;13479;49.044;8.716;2023-03-07T15:05:19;10.30;;;3.85;;
25609;SDS011;13479;49.044;8.716;2023-03-07T15:07:49;7.88;;;4.88;;
25609;SDS011;13479;49.044;8.716;2023-03-07T15:10:18;10.05;;;5.20;;
25609;SDS011;13479;49.044;8.716;2023-03-07T15:12:48;8.10;;;4.25;;
25609;SDS011;13479;49.044;8.716;2023-03-07T15:15:34;10.20;;;4.93;;
25609;SDS011;13479;49.044;8.716;2023-03-07T15:18:05;11.55;;;4.22;;
25609;SDS011;13479;49.044;8.716;2023-03-07T15:20:40;7.75;;;3.97;;
25609;SDS011;13479;49.044;8.716;2023-03-07T15:23:12;11.13;;;5.15;;
25609;SDS011;13479;49.044;8.716;2023-03-07T15:25:44;8.95;;;4.47;;
25609;SDS011;13479;49.044;8.716;2023-03-07T15:28:18;10.15;;;4.10;;
25609;SDS011;13479;49.044;8.716;2023-03-07T15:30:47;8.88;;;4.10;;
25609;SDS011;13479;49.044;8.716;2023-03-07T15:33:20;9.35;;;4.43;;
25609;SDS011;13479;49.044;8.716;2023-03-07T15:38:37;6.60;;;4.00;;
25609;SDS011;13479;49.044;8.716;2023-03-07T15:41:23;7.32;;;3.63;;
25609;SDS011;13479;49.044;8.716;2023-03-07T15:44:01;6.95;;;3.88;;
25609;SDS011;13479;49.044;8.716;2023-03-07T15:46:31;6.25;;;3.53;;
25609;SDS011;13479;49.044;8.716;2023-03-07T15:48:58;9.23;;;4.03;;
25609;SDS011;13479;49.044;8.716;2023-03-07T15:51:24;6.95;;;3.70;;
25609;SDS011;13479;49.044;8.716;2023-03-07T15:54:14;7.20;;;3.63;;
25609;SDS011;13479;49.044;8.716;2023-03-07T15:56:42;7.95;;;3.38;;
25609;SDS011;13479;49.044;8.716;2023-03-07T15:59:29;9.35;;;3.65;;
25609;SDS011;13479;49.044;8.716;2023-03-07T16:02:23;9.65;;;4.15;;
25609;SDS011;13479;49.044;8.716;2023-03-07T16:05:04;6.68;;;3.90;;
25609;SDS011;13479;49.044;8.716;2023-03-07T16:07:51;8.82;;;4.50;;
25609;SDS011;13479;49.044;8.716;2023-03-07T16:10:18;7.72;;;4.30;;
25609;SDS011;13479;49.044;8.716;2023-03-07T16:12:43;9.10;;;3.88;;
25609;SDS011;13479;49.044;8.716;2023-03-07T16:15:13;9.35;;;3.90;;
25609;SDS011;13479;49.044;8.716;2023-03-07T16:17:39;8.85;;;4.65;;
25609;SDS011;13479;49.044;8.716;2023-03-07T16:20:14;10.05;;;4.18;;
25609;SDS011;13479;49.044;8.716;2023-03-07T16:22:40;8.57;;;4.28;;
25609;SDS011;13479;49.044;8.716;2023-03-07T16:25:06;7.85;;;4.55;;
25609;SDS011;13479;49.044;8.716;2023-03-07T16:27:32;7.82;;;4.45;;
25609;SDS011;13479;49.044;8.716;2023-03-07T16:29:57;8.00;;;3.85;;
25609;SDS011;13479;49.044;8.716;2023-03-07T16:32:23;10.52;;;4.57;;
25609;SDS011;13479;49.044;8.716;2023-03-07T16:34:49;9.00;;;4.57;;
25609;SDS011;13479;49.044;8.716;2023-03-07T16:37:15;9.35;;;4.75;;
25609;SDS011;13479;49.044;8.716;2023-03-07T16:39:40;9.63;;;4.38;;
25609;SDS011;13479;49.044;8.716;2023-03-07T16:42:06;8.48;;;4.03;;
25609;SDS011;13479;49.044;8.716;2023-03-07T16:44:38;7.68;;;4.30;;
25609;SDS011;13479;49.044;8.716;2023-03-07T16:47:05;9.20;;;4.78;;
25609;SDS011;13479;49.044;8.716;2023-03-07T16:49:35;7.45;;;4.28;;
25609;SDS011;13479;49.044;8.716;2023-03-07T16:52:00;8.75;;;4.15;;
25609;SDS011;13479;49.044;8.716;2023-03-07T16:54:26;7.90;;;4.55;;
25609;SDS011;13479;49.044;8.716;2023-03-07T16:56:51;8.77;;;4.65;;
25609;SDS011;13479;49.044;8.716;2023-03-07T16:59:19;9.88;;;4.57;;
25609;SDS011;13479;49.044;8.716;2023-03-07T17:01:48;9.90;;;4.05;;
25609;SDS011;13479;49.044;8.716;2023-03-07T17:04:15;8.30;;;4.55;;
25609;SDS011;13479;49.044;8.716;2023-03-07T17:06:41;7.70;;;4.65;;
25609;SDS011;13479;49.044;8.716;2023-03-07T17:09:07;9.10;;;4.20;;
25609;SDS011;13479;49.044;8.716;2023-03-07T17:11:37;9.98;;;5.18;;
25609;SDS011;13479;49.044;8.716;2023-03-07T17:14:07;9.43;;;4.30;;
25609;SDS011;13479;49.044;8.716;2023-03-07T17:16:40;12.43;;;5.30;;
25609;SDS011;13479;49.044;8.716;2023-03-07T17:21:49;9.75;;;4.50;;
25609;SDS011;13479;49.044;8.716;2023-03-07T17:24:15;8.65;;;5.07;;
25609;SDS011;13479;49.044;8.716;2023-03-07T17:26:40;10.15;;;5.20;;
25609;SDS011;13479;49.044;8.716;2023-03-07T17:29:09;12.10;;;4.95;;
25609;SDS011;13479;49.044;8.716;2023-03-07T17:31:41;11.40;;;5.40;;
25609;SDS011;13479;49.044;8.716;2023-03-07T17:34:10;13.38;;;5.40;;
25609;SDS011;13479;49.044;8.716;2023-03-07T17:36:43;9.03;;;5.00;;
25609;SDS011;13479;49.044;8.716;2023-03-07T17:39:08;8.82;;;4.70;;
25609;SDS011;13479;49.044;8.716;2023-03-07T17:41:33;10.98;;;5.30;;
25609;SDS011;13479;49.044;8.716;2023-03-07T17:43:58;9.77;;;4.90;;
25609;SDS011;13479;49.044;8.716;2023-03-07T17:46:24;8.37;;;4.73;;
25609;SDS011;13479;49.044;8.716;2023-03-07T17:48:49;10.23;;;5.15;;
25609;SDS011;13479;49.044;8.716;2023-03-07T17:51:17;9.85;;;5.20;;
25609;SDS011;13479;49.044;8.716;2023-03-07T17:53:42;9.77;;;3.90;;
25609;SDS011;13479;49.044;8.716;2023-03-07T17:56:08;9.83;;;4.80;;
25609;SDS011;13479;49.044;8.716;2023-03-07T17:58:34;8.25;;;4.53;;
25609;SDS011;13479;49.044;8.716;2023-03-07T18:01:02;10.88;;;5.45;;
25609;SDS011;13479;49.044;8.716;2023-03-07T18:03:27;9.77;;;4.90;;
25609;SDS011;13479;49.044;8.716;2023-03-07T18:05:52;9.40;;;4.72;;
25609;SDS011;13479;49.044;8.716;2023-03-07T18:08:18;12.02;;;5.00;;
25609;SDS011;13479;49.044;8.716;2023-03-07T18:10:43;9.70;;;5.10;;
25609;SDS011;13479;49.044;8.716;2023-03-07T18:13:08;11.48;;;4.63;;
25609;SDS011;13479;49.044;8.716;2023-03-07T18:15:34;12.13;;;5.13;;
25609;SDS011;13479;49.044;8.716;2023-03-07T18:17:59;11.20;;;5.50;;
25609;SDS011;13479;49.044;8.716;2023-03-07T18:20:24;10.90;;;4.82;;
25609;SDS011;13479;49.044;8.716;2023-03-07T18:22:51;11.02;;;5.10;;
25609;SDS011;13479;49.044;8.716;2023-03-07T18:25:17;13.30;;;6.88;;
25609;SDS011;13479;49.044;8.716;2023-03-07T18:27:43;10.13;;;4.73;;
25609;SDS011;13479;49.044;8.716;2023-03-07T18:30:10;9.93;;;5.23;;
25609;SDS011;13479;49.044;8.716;2023-03-07T18:32:35;10.63;;;5.37;;
25609;SDS011;13479;49.044;8.716;2023-03-07T18:35:01;8.38;;;4.93;;
25609;SDS011;13479;49.044;8.716;2023-03-07T18:37:27;9.73;;;5.47;;
25609;SDS011;13479;49.044;8.716;2023-03-07T18:39:53;7.82;;;3.88;;
25609;SDS011;13479;49.044;8.716;2023-03-07T18:42:18;10.10;;;5.00;;
25609;SDS011;13479;49.044;8.716;2023-03-07T18:44:43;9.70;;;4.80;;
25609;SDS011;13479;49.044;8.716;2023-03-07T18:47:08;9.20;;;5.10;;
25609;SDS011;13479;49.044;8.716;2023-03-07T18:49:34;13.67;;;5.33;;
25609;SDS011;13479;49.044;8.716;2023-03-07T18:52:00;10.53;;;4.63;;
25609;SDS011;13479;49.044;8.716;2023-03-07T18:54:25;9.85;;;4.50;;
25609;SDS011;13479;49.044;8.716;2023-03-07T18:56:50;10.33;;;4.57;;
25609;SDS011;13479;49.044;8.716;2023-03-07T18:59:16;9.37;;;4.17;;
25609;SDS011;13479;49.044;8.716;2023-03-07T19:01:41;7.95;;;4.35;;
25609;SDS011;13479;49.044;8.716;2023-03-07T19:04:08;8.13;;;4.05;;
25609;SDS011;13479;49.044;8.716;2023-03-07T19:06:36;8.80;;;4.67;;
25609;SDS011;13479;49.044;8.716;2023-03-07T19:09:04;6.83;;;3.83;;
25609;SDS011;13479;49.044;8.716;2023-03-07T19:11:30;9.37;;;4.50;;
25609;SDS011;13479;49.044;8.716;2023-03-07T19:13:56;7.67;;;4.00;;
25609;SDS011;13479;49.044;8.716;2023-03-07T19:16:22;9.45;;;5.15;;
25609;SDS011;13479;49.044;8.716;2023-03-07T19:18:50;10.00;;;4.97;;
25609;SDS011;13479;49.044;8.716;2023-03-07T19:21:17;9.57;;;4.38;;
25609;SDS011;13479;49.044;8.716;2023-03-07T19:23:44;9.47;;;4.37;;
25609;SDS011;13479;49.044;8.716;2023-03-07T19:26:11;9.47;;;4.60;;
25609;SDS011;13479;49.044;8.716;2023-03-07T19:28:38;9.23;;;4.53;;
25609;SDS011;13479;49.044;8.716;2023-03-07T19:31:04;10.10;;;4.83;;
25609;SDS011;13479;49.044;8.716;2023-03-07T19:33:34;8.10;;;4.78;;
25609;SDS011;13479;49.044;8.716;2023-03-07T19:36:04;9.67;;;5.20;;
25609;SDS011;13479;49.044;8.716;2023-03-07T19:38:31;9.20;;;5.17;;
25609;SDS011;13479;49.044;8.716;2023-03-07T19:40:57;12.10;;;5.50;;
25609;SDS011;13479;49.044;8.716;2023-03-07T19:43:29;8.67;;;4.60;;
25609;SDS011;13479;49.044;8.716;2023-03-07T19:45:55;9.88;;;4.53;;
25609;SDS011;13479;49.044;8.716;2023-03-07T19:48:21;11.65;;;4.57;;
25609;SDS011;13479;49.044;8.716;2023-03-07T19:50:47;8.50;;;4.73;;
25609;SDS011;13479;49.044;8.716;2023-03-07T19:53:13;8.47;;;3.73;;
25609;SDS011;13479;49.044;8.716;2023-03-07T19:55:39;10.18;;;4.68;;
25609;SDS011;13479;49.044;8.716;2023-03-07T19:58:04;8.80;;;4.15;;
25609;SDS011;13479;49.044;8.716;2023-03-07T20:00:29;9.88;;;5.10;;
25609;SDS011;13479;49.044;8.716;2023-03-07T20:02:55;9.53;;;4.73;;
25609;SDS011;13479;49.044;8.716;2023-03-07T20:05:20;8.20;;;4.32;;
25609;SDS011;13479;49.044;8.716;2023-03-07T20:07:45;9.40;;;4.50;;
25609;SDS011;13479;49.044;8.716;2023-03-07T20:10:10;8.07;;;3.97;;
25609;SDS011;13479;49.044;8.716;2023-03-07T20:12:36;9.65;;;4.75;;
25609;SDS011;13479;49.044;8.716;2023-03-07T20:15:01;9.60;;;4.60;;
25609;SDS011;13479;49.044;8.716;2023-03-07T20:17:26;8.13;;;3.97;;
25609;SDS011;13479;49.044;8.716;2023-03-07T20:19:55;9.30;;;4.30;;
25609;SDS011;13479;49.044;8.716;2023-03-07T20:22:22;7.22;;;3.80;;
25609;SDS011;13479;49.044;8.716;2023-03-07T20:24:48;8.13;;;3.50;;
25609;SDS011;13479;49.044;8.716;2023-03-07T20:27:15;8.80;;;3.80;;
25609;SDS011;13479;49.044;8.716;2023-03-07T20:29:44;7.07;;;4.03;;
25609;SDS011;13479;49.044;8.716;2023-03-07T20:32:09;12.05;;;4.07;;
25609;SDS011;13479;49.044;8.716;2023-03-07T20:34:35;8.30;;;3.47;;
25609;SDS011;13479;49.044;8.716;2023-03-07T20:37:00;9.07;;;4.25;;
25609;SDS011;13479;49.044;8.716;2023-03-07T20:39:26;7.43;;;3.58;;
25609;SDS011;13479;49.044;8.716;2023-03-07T20:41:51;7.40;;;4.07;;
25609;SDS011;13479;49.044;8.716;2023-03-07T20:44:16;6.97;;;3.73;;
25609;SDS011;13479;49.044;8.716;2023-03-07T20:46:41;6.90;;;4.03;;
25609;SDS011;13479;49.044;8.716;2023-03-07T20:49:09;7.70;;;4.03;;
25609;SDS011;13479;49.044;8.716;2023-03-07T20:51:36;7.87;;;3.83;;
25609;SDS011;13479;49.044;8.716;2023-03-07T20:54:03;8.43;;;4.15;;
25609;SDS011;13479;49.044;8.716;2023-03-07T20:56:30;7.70;;;3.60;;
25609;SDS011;13479;49.044;8.716;2023-03-07T20:58:57;7.85;;;3.92;;
25609;SDS011;13479;49.044;8.716;2023-03-07T21:01:24;7.07;;;4.30;;
25609;SDS011;13479;49.044;8.716;2023-03-07T21:03:50;6.97;;;3.70;;
25609;SDS011;13479;49.044;8.716;2023-03-07T21:06:17;8.93;;;4.70;;
25609;SDS011;13479;49.044;8.716;2023-03-07T21:08:43;9.73;;;4.57;;
25609;SDS011;13479;49.044;8.716;2023-03-07T21:11:09;9.70;;;4.97;;
25609;SDS011;13479;49.044;8.716;2023-03-07T21:13:37;8.43;;;4.33;;
25609;SDS011;13479;49.044;8.716;2023-03-07T21:16:25;8.93;;;4.33;;
25609;SDS011;13479;49.044;8.716;2023-03-07T21:18:51;9.97;;;4.37;;
25609;SDS011;13479;49.044;8.716;2023-03-07T21:21:18;8.50;;;5.10;;
25609;SDS011;13479;49.044;8.716;2023-03-07T21:23:45;9.37;;;4.73;;
25609;SDS011;13479;49.044;8.716;2023-03-07T21:26:15;8.00;;;4.13;;
25609;SDS011;13479;49.044;8.716;2023-03-07T21:28:42;9.47;;;4.20;;
25609;SDS011;13479;49.044;8.716;2023-03-07T21:31:29;15.33;;;7.67;;
25609;SDS011;13479;49.044;8.716;2023-03-07T21:33:58;8.90;;;4.40;;
25609;SDS011;13479;49.044;8.716;2023-03-07T21:36:28;8.70;;;4.40;;
25609;SDS011;13479;49.044;8.716;2023-03-07T21:38:55;9.73;;;4.57;;
25609;SDS011;13479;49.044;8.716;2023-03-07T21:41:21;10.63;;;4.53;;
25609;SDS011;13479;49.044;8.716;2023-03-07T21:43:48;9.70;;;4.80;;
25609;SDS011;13479;49.044;8.716;2023-03-07T21:46:14;9.57;;;4.70;;